Time;durP1;ratioP1;P1;durP2;ratioP2;P2;SDS_P1;SDS_P2;PMS_P1;PMS_P2;Temp;Humidity;BMP_temperature;BMP_pressure;BME280_temperature;BME280_humidity;BME280_pressure;Samples;Min_cycle;Max_cycle;Signal;HPM_P1;HPM_P2
2023/08/10 00:01:02;;;;;;;6.63;2.10;;;12.70;99.90;;;;;;4945811;28;20034;-89
2023/08/10 00:03:29;;;;;;;7.40;2.28;;;12.60;99.90;;;;;;4961131;28;20504;-89
2023/08/10 00:05:56;;;;;;;6.07;2.08;;;12.60;99.90;;;;;;4960590;28;20066;-90
2023/08/10 00:08:22;;;;;;;6.88;2.10;;;12.60;99.90;;;;;;4945244;28;20104;-90
2023/08/10 00:10:50;;;;;;;6.00;2.05;;;12.60;99.90;;;;;;4961145;28;20058;-90
2023/08/10 00:13:17;;;;;;;4.90;1.60;;;12.50;99.90;;;;;;4961078;28;20038;-90
2023/08/10 00:15:44;;;;;;;7.20;1.95;;;12.50;99.90;;;;;;4975843;28;20045;-89
2023/08/10 00:18:10;;;;;;;4.68;1.90;;;12.40;99.90;;;;;;4960952;28;20137;-89
2023/08/10 00:20:37;;;;;;;3.92;1.77;;;12.40;99.90;;;;;;4944693;28;20042;-88
2023/08/10 00:23:04;;;;;;;5.95;1.85;;;12.40;99.90;;;;;;4945278;28;20042;-90
2023/08/10 00:25:31;;;;;;;5.97;1.77;;;12.30;99.90;;;;;;4960927;28;20045;-90
2023/08/10 00:27:57;;;;;;;5.95;1.88;;;12.20;99.90;;;;;;4960882;28;20053;-90
2023/08/10 00:30:24;;;;;;;7.72;2.08;;;12.20;99.90;;;;;;4960993;28;20039;-90
2023/08/10 00:32:51;;;;;;;9.23;2.08;;;12.10;99.90;;;;;;4944840;28;20042;-89
2023/08/10 00:35:18;;;;;;;3.85;1.50;;;12.10;99.90;;;;;;4945243;28;20043;-90
2023/08/10 00:37:46;;;;;;;6.50;1.90;;;12.00;99.90;;;;;;4944700;28;20046;-89
2023/08/10 00:40:13;;;;;;;8.25;2.00;;;12.00;99.90;;;;;;4960562;28;20050;-90
2023/08/10 00:42:39;;;;;;;6.55;2.20;;;11.90;99.90;;;;;;4960947;28;20736;-89
2023/08/10 00:45:07;;;;;;;4.05;1.55;;;11.90;99.90;;;;;;4945634;28;20038;-90
2023/08/10 00:47:34;;;;;;;5.85;2.08;;;11.90;99.90;;;;;;4960743;28;20082;-89
2023/08/10 00:50:03;;;;;;;5.78;2.05;;;11.90;99.90;;;;;;4960227;28;20967;-90
2023/08/10 00:52:31;;;;;;;5.78;2.20;;;11.90;99.90;;;;;;4976989;28;20158;-90
2023/08/10 00:54:58;;;;;;;4.63;1.85;;;11.90;99.90;;;;;;4975988;28;20381;-90
2023/08/10 00:57:25;;;;;;;8.43;2.42;;;11.80;99.90;;;;;;4960486;28;20109;-89
2023/08/10 00:59:52;;;;;;;7.32;2.08;;;11.90;99.90;;;;;;4975983;28;20041;-89
2023/08/10 01:02:19;;;;;;;5.90;2.33;;;11.90;99.90;;;;;;4976329;28;20041;-90
2023/08/10 01:04:46;;;;;;;7.53;2.03;;;11.90;99.90;;;;;;4959878;28;20043;-89
2023/08/10 01:07:12;;;;;;;6.57;1.90;;;11.90;99.90;;;;;;4960421;28;20133;-89
2023/08/10 01:09:53;;;;;;;5.60;1.90;;;12.00;99.90;;;;;;4975910;28;20043;-89
2023/08/10 01:12:48;;;;;;;3.78;1.80;;;12.00;99.90;;;;;;4976137;28;20039;-89
2023/08/10 01:15:40;;;;;;;5.40;2.00;;;12.00;99.90;;;;;;4975544;28;20133;-89
2023/08/10 01:18:18;;;;;;;5.25;2.10;;;12.00;99.90;;;;;;4975630;28;20408;-88
2023/08/10 01:20:47;;;;;;;6.03;1.80;;;12.00;99.90;;;;;;4975890;28;20484;-89
2023/08/10 01:23:26;;;;;;;8.80;2.70;;;12.00;99.90;;;;;;4960332;28;20039;-89
2023/08/10 01:25:53;;;;;;;6.65;2.15;;;12.00;99.90;;;;;;4975273;28;20043;-89
2023/08/10 01:28:19;;;;;;;5.88;2.13;;;12.00;99.90;;;;;;4958926;28;20126;-89
2023/08/10 01:30:46;;;;;;;4.78;2.30;;;12.00;99.90;;;;;;4960370;28;20569;-88
2023/08/10 01:33:13;;;;;;;5.07;2.13;;;12.00;99.90;;;;;;4944056;28;20050;-90
2023/08/10 01:35:39;;;;;;;5.30;2.10;;;12.10;99.90;;;;;;4944113;28;20043;-89
2023/08/10 01:38:06;;;;;;;7.75;2.38;;;12.10;99.90;;;;;;4959313;28;20043;-89
2023/08/10 01:40:33;;;;;;;4.88;1.83;;;12.00;99.90;;;;;;4960005;28;20499;-88
2023/08/10 01:43:02;;;;;;;5.53;2.10;;;12.00;99.90;;;;;;4959990;28;20396;-90
2023/08/10 01:45:29;;;;;;;7.13;2.40;;;12.00;99.90;;;;;;4960088;28;20492;-89
2023/08/10 01:48:07;;;;;;;4.88;2.30;;;12.00;99.90;;;;;;4943876;28;20129;-89
2023/08/10 01:50:38;;;;;;;6.05;2.28;;;12.00;99.90;;;;;;4975717;28;20129;-90
2023/08/10 01:53:12;;;;;;;6.10;2.05;;;12.00;99.90;;;;;;4975036;28;20049;-90
2023/08/10 01:55:39;;;;;;;5.68;1.95;;;11.90;99.90;;;;;;4975725;28;20042;-89
2023/08/10 01:58:06;;;;;;;6.03;2.00;;;11.90;99.90;;;;;;4936387;28;20830;-89
2023/08/10 02:00:37;;;;;;;5.63;2.45;;;11.90;99.90;;;;;;4959873;28;20046;-89
2023/08/10 02:03:04;;;;;;;4.72;2.10;;;11.80;99.90;;;;;;4975337;28;20126;-89
2023/08/10 02:05:32;;;;;;;6.40;2.17;;;11.80;99.90;;;;;;4974934;28;20527;-89
2023/08/10 02:07:59;;;;;;;4.53;2.40;;;11.80;99.90;;;;;;4959239;28;20058;-89
2023/08/10 02:10:25;;;;;;;4.95;2.15;;;11.90;99.90;;;;;;4959521;28;20830;-89
2023/08/10 02:12:52;;;;;;;6.43;2.50;;;11.90;99.90;;;;;;4944118;28;20050;-89
2023/08/10 02:15:20;;;;;;;7.85;2.60;;;11.90;99.90;;;;;;4943659;28;20054;-89
2023/08/10 02:17:46;;;;;;;6.35;2.60;;;11.90;99.90;;;;;;4959505;28;20447;-89
2023/08/10 02:20:13;;;;;;;5.10;2.20;;;11.90;99.90;;;;;;4958971;28;20126;-89
2023/08/10 02:22:51;;;;;;;6.97;2.67;;;12.00;99.90;;;;;;4943840;28;20034;-90
2023/08/10 02:25:19;;;;;;;4.55;2.15;;;12.00;99.90;;;;;;4975101;28;20530;-89
2023/08/10 02:27:47;;;;;;;7.72;2.75;;;12.00;99.90;;;;;;4975313;28;20042;-90
2023/08/10 02:30:15;;;;;;;6.15;2.17;;;12.00;99.90;;;;;;4959226;28;20073;-89
2023/08/10 02:32:41;;;;;;;6.25;2.47;;;12.00;99.90;;;;;;4943972;28;20046;-89
2023/08/10 02:35:09;;;;;;;4.35;1.88;;;12.00;99.90;;;;;;4959542;28;20505;-89
2023/08/10 02:37:36;;;;;;;5.28;2.05;;;12.00;99.90;;;;;;4975123;28;20105;-90
2023/08/10 02:40:04;;;;;;;7.60;2.38;;;12.00;99.90;;;;;;4962520;28;20478;-89
2023/08/10 02:42:31;;;;;;;6.57;2.25;;;12.00;99.90;;;;;;4962892;28;20562;-89
2023/08/10 02:44:58;;;;;;;7.63;2.30;;;12.00;99.90;;;;;;4978341;28;20081;-88
2023/08/10 02:47:25;;;;;;;6.60;2.47;;;11.90;99.90;;;;;;4962846;28;20038;-90
2023/08/10 02:49:52;;;;;;;6.38;2.42;;;12.00;99.90;;;;;;4994239;28;20075;-89
2023/08/10 02:52:19;;;;;;;4.03;1.95;;;12.00;99.90;;;;;;4962354;28;20090;-90
2023/08/10 02:54:45;;;;;;;5.65;2.30;;;12.00;99.90;;;;;;4962532;28;20765;-89
2023/08/10 02:57:12;;;;;;;4.85;2.10;;;12.00;99.90;;;;;;4946711;28;20738;-89
2023/08/10 02:59:39;;;;;;;10.05;2.75;;;12.10;99.90;;;;;;4946563;28;20142;-89
2023/08/10 03:02:06;;;;;;;4.32;2.22;;;12.10;99.90;;;;;;4946923;28;20488;-89
2023/08/10 03:04:33;;;;;;;6.32;2.17;;;12.10;99.90;;;;;;4947178;28;20094;-89
2023/08/10 03:07:00;;;;;;;6.93;2.40;;;12.10;99.90;;;;;;4962282;28;20097;-89
2023/08/10 03:09:27;;;;;;;5.90;2.17;;;12.10;99.90;;;;;;4961897;28;20054;-89
2023/08/10 03:11:54;;;;;;;8.35;2.55;;;12.00;99.90;;;;;;4946848;28;20488;-89
2023/08/10 03:14:21;;;;;;;7.53;2.83;;;12.10;99.90;;;;;;4946488;28;20051;-89
2023/08/10 03:16:47;;;;;;;4.95;2.17;;;12.00;99.90;;;;;;4962301;28;20039;-89
2023/08/10 03:19:14;;;;;;;4.75;2.13;;;12.00;99.90;;;;;;4961416;28;20046;-89
2023/08/10 03:21:41;;;;;;;5.05;2.50;;;12.00;99.90;;;;;;4946105;28;20035;-90
2023/08/10 03:24:08;;;;;;;6.38;2.22;;;12.00;99.90;;;;;;4946021;28;20039;-89
2023/08/10 03:26:34;;;;;;;6.10;2.50;;;12.10;99.90;;;;;;4946032;28;20403;-90
2023/08/10 03:29:01;;;;;;;6.32;2.50;;;12.10;99.90;;;;;;4961730;28;20085;-90
2023/08/10 03:31:29;;;;;;;8.10;2.80;;;12.10;99.90;;;;;;4961734;28;20451;-89
2023/08/10 03:33:55;;;;;;;5.97;2.47;;;12.20;99.90;;;;;;4946251;28;20514;-89
2023/08/10 03:36:22;;;;;;;6.18;2.90;;;12.20;99.90;;;;;;4961806;28;20047;-89
2023/08/10 03:38:49;;;;;;;6.82;3.05;;;12.20;99.90;;;;;;4945970;28;20053;-89
2023/08/10 03:41:16;;;;;;;7.63;3.15;;;12.30;99.90;;;;;;4961959;28;20134;-89
2023/08/10 03:43:42;;;;;;;6.75;2.72;;;12.30;99.90;;;;;;4961693;28;20480;-89
2023/08/10 03:46:09;;;;;;;7.70;3.15;;;12.30;99.90;;;;;;4961717;28;20035;-89
2023/08/10 03:48:36;;;;;;;9.07;3.00;;;12.40;99.90;;;;;;4945793;28;20062;-89
2023/08/10 03:51:03;;;;;;;6.18;3.00;;;12.40;99.90;;;;;;4960188;28;20054;-89
2023/08/10 03:53:30;;;;;;;6.72;3.00;;;12.40;99.90;;;;;;4961097;28;20058;-89
2023/08/10 03:55:57;;;;;;;6.15;3.00;;;12.40;99.90;;;;;;4961142;28;20089;-89
2023/08/10 03:58:24;;;;;;;9.05;3.75;;;12.50;99.90;;;;;;4945162;28;20103;-89
2023/08/10 04:00:50;;;;;;;10.13;3.70;;;12.50;99.90;;;;;;4945486;28;20109;-89
2023/08/10 04:03:17;;;;;;;8.13;3.45;;;12.50;99.90;;;;;;4960473;28;20049;-89
2023/08/10 04:05:44;;;;;;;8.85;3.60;;;12.60;99.90;;;;;;4961372;28;20113;-89
2023/08/10 04:08:11;;;;;;;9.75;3.55;;;12.60;99.90;;;;;;4945259;28;20057;-89
2023/08/10 04:10:37;;;;;;;9.85;4.32;;;12.60;99.90;;;;;;4960872;28;20129;-89
2023/08/10 04:13:05;;;;;;;10.52;3.80;;;12.60;99.90;;;;;;4960810;28;20046;-90
2023/08/10 04:15:32;;;;;;;11.18;4.07;;;12.70;99.90;;;;;;4970219;29;20408;-90
2023/08/10 04:17:59;;;;;;;8.25;4.00;;;12.70;99.90;;;;;;4957514;29;20050;-90
2023/08/10 04:20:26;;;;;;;10.68;4.30;;;12.70;99.90;;;;;;4957543;29;20557;-90
2023/08/10 04:22:54;;;;;;;12.65;3.67;;;12.70;99.90;;;;;;4941197;29;20039;-90
2023/08/10 04:25:20;;;;;;;12.07;4.20;;;12.80;99.90;;;;;;4941843;29;20039;-90
2023/08/10 04:27:47;;;;;;;8.63;4.10;;;12.80;99.90;;;;;;4941543;29;20393;-90
2023/08/10 04:30:14;;;;;;;7.50;3.85;;;12.80;99.90;;;;;;4941459;29;20082;-89
2023/08/10 04:32:41;;;;;;;7.03;3.58;;;12.80;99.90;;;;;;4957621;29;20120;-89
2023/08/10 04:35:08;;;;;;;7.13;3.92;;;12.90;99.90;;;;;;4926363;29;20056;-89
2023/08/10 04:37:35;;;;;;;15.82;3.78;;;12.90;99.90;;;;;;4956997;29;20089;-89
2023/08/10 04:40:05;;;;;;;6.22;3.72;;;12.90;99.90;;;;;;4941547;29;20129;-89
2023/08/10 04:42:31;;;;;;;10.10;3.88;;;13.00;99.90;;;;;;4941650;29;20051;-90
2023/08/10 04:44:58;;;;;;;6.70;3.20;;;12.90;99.90;;;;;;4941415;29;20043;-89
2023/08/10 04:47:25;;;;;;;6.60;3.00;;;13.00;99.90;;;;;;4957123;29;20102;-89
2023/08/10 04:49:52;;;;;;;10.02;3.20;;;13.00;99.90;;;;;;4941216;29;20062;-89
2023/08/10 04:52:18;;;;;;;9.27;3.33;;;13.00;99.90;;;;;;4940946;29;20031;-89
2023/08/10 04:54:45;;;;;;;8.73;3.38;;;13.00;99.90;;;;;;4957413;29;20043;-90
2023/08/10 04:57:12;;;;;;;6.93;3.00;;;13.00;99.90;;;;;;4925591;29;20102;-89
2023/08/10 04:59:38;;;;;;;8.32;3.25;;;13.10;99.90;;;;;;4940783;29;20043;-90
2023/08/10 05:02:05;;;;;;;8.35;2.83;;;13.10;99.90;;;;;;4956780;29;20743;-89
2023/08/10 05:04:32;;;;;;;6.32;2.95;;;13.10;99.90;;;;;;4940759;29;20130;-90
2023/08/10 05:06:59;;;;;;;6.82;3.13;;;13.10;99.90;;;;;;4940713;29;20443;-90
2023/08/10 05:09:25;;;;;;;7.90;3.35;;;13.20;99.90;;;;;;4925322;29;20818;-90
2023/08/10 05:11:52;;;;;;;6.82;2.83;;;13.20;99.90;;;;;;4941412;29;20043;-90
2023/08/10 05:14:19;;;;;;;8.18;3.17;;;13.30;99.90;;;;;;4925388;29;20074;-88
2023/08/10 05:16:46;;;;;;;8.63;3.17;;;13.30;99.90;;;;;;4956468;29;20047;-89
2023/08/10 05:19:13;;;;;;;9.10;3.25;;;13.40;99.90;;;;;;4940692;29;20051;-89
2023/08/10 05:21:40;;;;;;;8.88;3.30;;;13.40;99.90;;;;;;4925309;29;20508;-89
2023/08/10 05:24:07;;;;;;;13.05;3.38;;;13.40;99.90;;;;;;4925578;29;20078;-90
2023/08/10 05:26:33;;;;;;;11.48;3.38;;;13.50;99.90;;;;;;4940939;29;20044;-90
2023/08/10 05:29:00;;;;;;;8.40;3.00;;;13.50;99.90;;;;;;4941004;29;20133;-90
2023/08/10 05:31:27;;;;;;;7.28;2.83;;;13.60;99.90;;;;;;4940965;29;20051;-90
2023/08/10 05:33:54;;;;;;;7.03;3.10;;;13.60;99.90;;;;;;4925376;29;20043;-90
2023/08/10 05:36:21;;;;;;;5.78;2.70;;;13.70;99.90;;;;;;4940751;29;20385;-90
2023/08/10 05:38:48;;;;;;;8.15;2.70;;;13.70;99.90;;;;;;4925261;29;20039;-90
2023/08/10 05:41:15;;;;;;;8.45;2.90;;;13.80;99.90;;;;;;4956613;29;20039;-90
2023/08/10 05:43:41;;;;;;;6.07;2.30;;;13.90;99.90;;;;;;4956150;29;20078;-89
2023/08/10 05:46:08;;;;;;;5.35;2.45;;;14.00;99.90;;;;;;4924884;29;20043;-90
2023/08/10 05:48:35;;;;;;;5.57;2.53;;;14.00;99.90;;;;;;4925264;29;20054;-90
2023/08/10 05:51:01;;;;;;;9.25;2.88;;;14.10;99.90;;;;;;4940711;29;20114;-89
2023/08/10 05:53:28;;;;;;;12.50;2.50;;;14.10;99.90;;;;;;4940263;29;20551;-90
2023/08/10 05:55:55;;;;;;;5.70;2.50;;;14.20;99.90;;;;;;4940779;29;20089;-90
2023/08/10 05:58:22;;;;;;;10.70;2.80;;;14.20;99.90;;;;;;4940856;29;20487;-90
2023/08/10 06:00:48;;;;;;;9.50;3.50;;;14.30;99.90;;;;;;4955721;29;20035;-90
2023/08/10 06:03:15;;;;;;;8.55;2.65;;;14.40;99.90;;;;;;4940317;28;20058;-90
2023/08/10 06:05:43;;;;;;;7.25;2.33;;;14.40;99.90;;;;;;4956200;29;20138;-90
2023/08/10 06:08:10;;;;;;;4.75;2.30;;;14.50;99.90;;;;;;4956388;29;20914;-89
2023/08/10 06:10:37;;;;;;;12.77;2.95;;;14.60;99.90;;;;;;4940324;29;20050;-89
2023/08/10 06:13:06;;;;;;;7.07;2.70;;;14.60;99.90;;;;;;4956584;29;20134;-90
2023/08/10 06:15:33;;;;;;;4.88;2.25;;;14.60;99.90;;;;;;4943792;29;20047;-90
2023/08/10 06:18:00;;;;;;;8.93;2.13;;;14.70;99.90;;;;;;4943838;29;20050;-90
2023/08/10 06:20:29;;;;;;;5.97;2.63;;;14.80;99.90;;;;;;4959800;29;20105;-89
2023/08/10 06:22:56;;;;;;;8.50;2.17;;;14.70;99.90;;;;;;4929011;29;20032;-91
2023/08/10 06:25:30;;;;;;;8.40;2.50;;;14.90;99.90;;;;;;4959908;29;20046;-90
2023/08/10 06:27:58;;;;;;;11.98;2.90;;;14.70;99.90;;;;;;4959624;29;20389;-90
2023/08/10 06:30:25;;;;;;;5.38;2.33;;;15.00;99.90;;;;;;4959598;29;20106;-90
2023/08/10 06:32:52;;;;;;;10.63;2.20;;;15.10;99.90;;;;;;4959646;29;20090;-91
2023/08/10 06:35:22;;;;;;;7.00;2.42;;;15.10;99.90;;;;;;4975758;29;20126;-91
2023/08/10 06:37:50;;;;;;;8.82;2.10;;;15.20;99.90;;;;;;4943383;29;20122;-90
2023/08/10 06:40:17;;;;;;;7.07;2.28;;;15.20;99.90;;;;;;4944369;29;20043;-90
2023/08/10 06:42:44;;;;;;;12.63;2.53;;;15.20;99.90;;;;;;4943379;29;20035;-90
2023/08/10 06:45:11;;;;;;;8.82;2.35;;;15.30;99.90;;;;;;4959859;29;20516;-90
2023/08/10 06:47:38;;;;;;;9.15;2.45;;;15.30;99.90;;;;;;4990615;28;20480;-90
2023/08/10 06:50:08;;;;;;;6.97;2.60;;;15.20;99.90;;;;;;4943848;29;20075;-90
2023/08/10 06:52:35;;;;;;;11.63;2.53;;;15.20;99.90;;;;;;4991191;28;20103;-90
2023/08/10 06:55:02;;;;;;;6.93;2.70;;;15.20;99.90;;;;;;4943572;29;20102;-90
2023/08/10 06:57:31;;;;;;;4.55;2.42;;;15.10;99.90;;;;;;4975017;29;20043;-90
2023/08/10 06:59:58;;;;;;;11.35;2.72;;;15.20;99.90;;;;;;4958614;29;20086;-87
2023/08/10 07:02:25;;;;;;;6.00;2.90;;;15.20;99.90;;;;;;4943341;29;20077;-89
2023/08/10 07:04:52;;;;;;;8.95;2.80;;;15.20;99.90;;;;;;4974271;29;20091;-89
2023/08/10 07:07:19;;;;;;;5.82;2.08;;;15.20;99.90;;;;;;4942976;29;20095;-89
2023/08/10 07:09:46;;;;;;;4.93;2.00;;;15.30;99.90;;;;;;4958205;29;20106;-90
2023/08/10 07:12:13;;;;;;;8.32;2.03;;;15.40;99.90;;;;;;4943106;29;20047;-87
2023/08/10 07:14:40;;;;;;;6.05;1.90;;;15.40;99.90;;;;;;4942371;29;20051;-86
2023/08/10 07:17:07;;;;;;;7.78;2.08;;;15.50;99.90;;;;;;4958497;29;20120;-87
2023/08/10 07:19:36;;;;;;;8.43;1.80;;;15.60;99.90;;;;;;4958154;29;20412;-87
2023/08/10 07:22:02;;;;;;;9.05;1.50;;;15.60;99.90;;;;;;4958441;29;20448;-88
2023/08/10 07:24:29;;;;;;;9.05;1.88;;;15.80;99.90;;;;;;4941997;29;20047;-86
2023/08/10 07:26:56;;;;;;;6.80;1.52;;;15.80;99.90;;;;;;4957084;29;20039;-85
2023/08/10 07:29:23;;;;;;;9.15;1.65;;;15.90;99.90;;;;;;4957230;29;20408;-87
2023/08/10 07:31:51;;;;;;;5.78;1.27;;;16.10;99.90;;;;;;4957629;29;20507;-86
2023/08/10 07:34:18;;;;;;;8.55;1.50;;;16.10;99.90;;;;;;4942042;29;20050;-90
2023/08/10 07:36:48;;;;;;;9.43;1.70;;;16.20;99.90;;;;;;4957870;29;20154;-91
2023/08/10 07:39:15;;;;;;;5.10;1.30;;;16.20;99.90;;;;;;4943028;29;20480;-91
2023/08/10 07:41:48;;;;;;;6.57;1.38;;;16.30;99.90;;;;;;4990178;28;20104;-95
2023/08/10 07:44:15;;;;;;;7.50;1.38;;;16.40;99.90;;;;;;4958420;29;20035;-95
2023/08/10 07:46:50;;;;;;;6.15;1.40;;;16.50;99.90;;;;;;4958393;29;20480;-93
2023/08/10 07:52:51;;;;;;;4.27;1.30;;;16.60;99.90;;;;;;4953759;29;20043;-90
2023/08/10 07:55:18;;;;;;;6.43;1.40;;;16.60;99.90;;;;;;4942695;29;20144;-90
2023/08/10 07:57:49;;;;;;;6.93;1.50;;;16.60;99.90;;;;;;4989750;28;20043;-88
2023/08/10 08:00:17;;;;;;;5.75;1.35;;;16.60;99.90;;;;;;4973638;29;20054;-93
2023/08/10 08:02:44;;;;;;;7.32;1.42;;;16.60;99.90;;;;;;4957915;29;20043;-92
2023/08/10 08:05:11;;;;;;;7.45;1.58;;;16.60;99.90;;;;;;4940593;28;20035;-93
2023/08/10 08:07:40;;;;;;;7.65;1.40;;;16.60;99.90;;;;;;4957735;29;20134;-92
2023/08/10 08:10:10;;;;;;;8.45;1.40;;;16.60;99.90;;;;;;4957688;29;20480;-92
2023/08/10 08:12:37;;;;;;;5.85;1.92;;;16.50;99.90;;;;;;4955656;29;20091;-88
2023/08/10 08:15:04;;;;;;;4.30;1.17;;;16.50;99.90;;;;;;4940729;29;20136;-87
2023/08/10 08:18:09;;;;;;;5.47;1.58;;;16.50;99.90;;;;;;4941952;29;20039;-88
2023/08/10 08:20:36;;;;;;;6.22;1.50;;;16.60;99.90;;;;;;4957370;29;20130;-91
2023/08/10 08:23:03;;;;;;;6.53;1.52;;;16.90;99.90;;;;;;4941483;29;20130;-91
2023/08/10 08:25:30;;;;;;;6.20;1.40;;;17.20;99.90;;;;;;4942035;29;20049;-91
2023/08/10 08:27:57;;;;;;;5.80;1.15;;;17.40;99.90;;;;;;4941310;29;20492;-91
2023/08/10 08:30:26;;;;;;;6.35;1.38;;;17.50;99.90;;;;;;4941680;29;20480;-91
2023/08/10 08:32:52;;;;;;;10.55;1.63;;;17.60;99.90;;;;;;4957729;29;20039;-92
2023/08/10 08:35:19;;;;;;;5.80;1.38;;;17.50;99.90;;;;;;4925475;28;20047;-91
2023/08/10 08:37:46;;;;;;;5.68;1.40;;;17.50;99.90;;;;;;4956819;29;20487;-92
2023/08/10 08:40:13;;;;;;;4.90;1.30;;;17.50;99.90;;;;;;4956987;29;20126;-91
2023/08/10 08:42:41;;;;;;;6.78;1.77;;;17.50;99.90;;;;;;4941847;29;20647;-92
2023/08/10 08:45:08;;;;;;;5.65;1.48;;;17.70;99.90;;;;;;4957008;29;20043;-91
2023/08/10 08:47:36;;;;;;;5.45;1.30;;;17.90;99.90;;;;;;4941366;29;20097;-91
2023/08/10 08:50:03;;;;;;;5.38;1.40;;;18.10;99.90;;;;;;4956794;29;20077;-91
2023/08/10 08:52:31;;;;;;;10.88;1.75;;;18.20;99.90;;;;;;4957127;29;20046;-91
2023/08/10 08:54:58;;;;;;;7.60;1.95;;;18.30;99.90;;;;;;4941062;29;20035;-91
2023/08/10 08:57:25;;;;;;;11.07;1.77;;;18.30;99.90;;;;;;4941242;29;20039;-92
2023/08/10 08:59:54;;;;;;;4.57;1.63;;;18.30;99.90;;;;;;4941276;29;20054;-90
2023/08/10 09:02:21;;;;;;;4.15;1.17;;;18.30;99.90;;;;;;4957276;29;20046;-91
2023/08/10 09:04:48;;;;;;;6.38;1.50;;;18.30;99.90;;;;;;4941039;29;20043;-91
2023/08/10 09:07:15;;;;;;;5.82;1.80;;;18.30;99.90;;;;;;4940478;29;20059;-92
2023/08/10 09:09:41;;;;;;;5.82;1.30;;;18.40;99.90;;;;;;4956732;29;20404;-91
2023/08/10 09:12:37;;;;;;;6.07;1.35;;;18.50;99.90;;;;;;4956444;29;20476;-91
2023/08/10 09:15:10;;;;;;;4.88;1.10;;;18.60;99.90;;;;;;4956635;29;20079;-91
2023/08/10 09:17:51;;;;;;;3.63;1.48;;;18.50;99.90;;;;;;4956229;29;20047;-91
2023/08/10 09:20:26;;;;;;;7.88;1.40;;;18.90;99.90;;;;;;4956969;29;20126;-92
2023/08/10 09:22:55;;;;;;;5.10;1.10;;;19.00;99.90;;;;;;4941771;29;20173;-91
2023/08/10 09:25:25;;;;;;;4.35;1.08;;;19.00;99.90;;;;;;4956724;29;20379;-90
2023/08/10 09:27:53;;;;;;;4.75;1.50;;;19.00;99.90;;;;;;4941247;29;20196;-92
2023/08/10 09:30:20;;;;;;;5.65;1.35;;;18.80;99.90;;;;;;4956497;29;20043;-92
2023/08/10 09:32:47;;;;;;;5.28;1.30;;;18.70;99.90;;;;;;4956448;29;20051;-91
2023/08/10 09:35:16;;;;;;;6.47;1.20;;;18.80;99.90;;;;;;4956040;29;20039;-91
2023/08/10 09:37:44;;;;;;;7.05;1.50;;;18.70;99.90;;;;;;4956206;29;20137;-93
2023/08/10 09:40:15;;;;;;;7.15;1.70;;;18.70;99.90;;;;;;4971718;29;20039;-91
2023/08/10 09:42:42;;;;;;;3.42;1.10;;;18.70;99.90;;;;;;4941688;29;20505;-91
2023/08/10 09:45:12;;;;;;;6.63;1.02;;;18.70;99.90;;;;;;4956047;29;20073;-92
2023/08/10 09:47:40;;;;;;;16.30;1.40;;;18.80;99.90;;;;;;4956533;29;20031;-91
2023/08/10 09:50:15;;;;;;;4.07;1.02;;;18.90;99.90;;;;;;4960044;29;20035;-90
2023/08/10 09:52:43;;;;;;;3.63;1.20;;;18.70;99.90;;;;;;4959929;29;20052;-91
2023/08/10 09:55:10;;;;;;;5.50;1.40;;;18.90;99.90;;;;;;4944056;29;20101;-91
2023/08/10 09:57:44;;;;;;;9.32;1.50;;;18.80;99.90;;;;;;4960102;29;20035;-92
2023/08/10 10:00:22;;;;;;;5.05;1.15;;;19.00;99.90;;;;;;4959936;29;20043;-91
2023/08/10 10:02:49;;;;;;;8.00;1.45;;;19.00;99.90;;;;;;4944949;29;20043;-91
2023/08/10 10:05:17;;;;;;;4.82;1.20;;;18.90;99.90;;;;;;4959889;29;20102;-91
2023/08/10 10:07:44;;;;;;;3.60;1.30;;;19.00;99.90;;;;;;4944184;29;20077;-91
2023/08/10 10:10:13;;;;;;;4.25;1.00;;;19.10;99.90;;;;;;4943450;29;20071;-91
2023/08/10 10:12:41;;;;;;;4.90;1.10;;;19.10;99.90;;;;;;4929284;29;20050;-92
2023/08/10 10:15:09;;;;;;;4.30;1.20;;;19.10;99.90;;;;;;4959504;29;20050;-91
2023/08/10 10:17:36;;;;;;;5.32;1.23;;;19.10;99.90;;;;;;4944122;29;20047;-92
2023/08/10 10:20:14;;;;;;;3.50;1.08;;;19.20;99.90;;;;;;4943820;29;20174;-89
2023/08/10 10:22:41;;;;;;;6.13;1.17;;;19.20;99.90;;;;;;4957469;29;20051;-91
2023/08/10 10:25:16;;;;;;;8.68;1.13;;;19.20;99.90;;;;;;4975185;29;20043;-91
2023/08/10 10:27:50;;;;;;;4.50;1.05;;;18.90;99.90;;;;;;4944206;29;20043;-92
2023/08/10 10:31:17;;;;;;;7.25;1.40;;;19.40;99.90;;;;;;4959502;29;20189;-92
2023/08/10 10:33:55;;;;;;;4.97;1.20;;;19.20;99.90;;;;;;4958161;29;20480;-92
2023/08/10 10:36:22;;;;;;;9.35;1.70;;;19.40;99.90;;;;;;4959406;29;20039;-92
2023/08/10 10:39:04;;;;;;;3.17;1.10;;;19.40;99.90;;;;;;4959507;29;20191;-91
2023/08/10 10:41:32;;;;;;;5.88;1.60;;;19.30;99.90;;;;;;4959849;29;20039;-92
2023/08/10 10:44:02;;;;;;;3.90;1.38;;;19.40;99.90;;;;;;4959617;29;20051;-91
2023/08/10 10:46:32;;;;;;;4.47;1.10;;;19.50;99.90;;;;;;4959182;29;20481;-92
2023/08/10 10:49:00;;;;;;;5.45;1.20;;;19.50;99.90;;;;;;4959095;29;20079;-92
2023/08/10 10:51:29;;;;;;;5.68;1.20;;;19.60;99.90;;;;;;4958961;29;20134;-92
2023/08/10 10:53:57;;;;;;;4.65;1.08;;;19.70;99.90;;;;;;4959111;29;20526;-91
2023/08/10 10:56:25;;;;;;;2.90;0.80;;;19.50;99.90;;;;;;4959184;29;20047;-92
2023/08/10 10:58:51;;;;;;;2.42;1.08;;;19.50;99.90;;;;;;4942941;29;20039;-91
2023/08/10 11:01:19;;;;;;;3.10;1.25;;;19.40;99.90;;;;;;4958729;29;20069;-91
2023/08/10 11:03:54;;;;;;;2.67;1.08;;;19.40;99.90;;;;;;4958804;29;20460;-91
2023/08/10 11:06:23;;;;;;;3.47;1.15;;;19.40;99.90;;;;;;4958453;29;20062;-92
2023/08/10 11:08:53;;;;;;;5.00;1.38;;;19.40;99.90;;;;;;4958984;29;20053;-92
2023/08/10 11:11:20;;;;;;;2.40;0.90;;;19.40;99.90;;;;;;4958754;29;20043;-92
2023/08/10 11:13:48;;;;;;;3.05;1.00;;;19.50;99.90;;;;;;4943156;29;20039;-92
2023/08/10 11:16:18;;;;;;;4.88;1.08;;;19.50;99.90;;;;;;4958716;29;20044;-91
2023/08/10 11:18:47;;;;;;;4.00;1.10;;;19.40;99.90;;;;;;4958834;29;20043;-92
2023/08/10 11:21:15;;;;;;;3.75;1.08;;;19.60;99.90;;;;;;4957945;29;20043;-90
2023/08/10 11:23:42;;;;;;;3.13;1.08;;;19.70;99.90;;;;;;4958683;29;20047;-92
2023/08/10 11:26:11;;;;;;;2.85;1.05;;;19.70;99.90;;;;;;4942951;29;20201;-91
2023/08/10 11:28:38;;;;;;;2.42;0.98;;;19.70;99.90;;;;;;4927622;29;20039;-92
2023/08/10 11:31:06;;;;;;;2.45;0.98;;;19.60;99.90;;;;;;4974418;29;20047;-92
2023/08/10 11:33:33;;;;;;;2.42;1.10;;;19.80;99.90;;;;;;4957813;29;20564;-92
2023/08/10 11:36:00;;;;;;;3.53;0.88;;;19.70;99.90;;;;;;4958265;29;20154;-92
2023/08/10 11:38:27;;;;;;;5.97;1.23;;;19.90;99.90;;;;;;4957994;29;20468;-92
2023/08/10 11:40:57;;;;;;;3.15;1.05;;;20.10;99.90;;;;;;4942680;29;20492;-92
2023/08/10 11:43:25;;;;;;;4.32;1.00;;;20.10;99.90;;;;;;4957852;29;20112;-92
2023/08/10 11:45:55;;;;;;;4.35;1.00;;;20.00;99.90;;;;;;4958352;29;20415;-92
2023/08/10 11:48:26;;;;;;;4.35;1.00;;;20.00;99.90;;;;;;4942373;29;20135;-92
2023/08/10 11:51:00;;;;;;;3.63;1.20;;;20.10;99.90;;;;;;4928440;29;20054;-92
2023/08/10 11:53:39;;;;;;;4.83;1.20;;;20.00;99.90;;;;;;4958003;29;20047;-92
2023/08/10 11:56:09;;;;;;;3.65;0.98;;;20.20;99.90;;;;;;4957794;29;20089;-91
2023/08/10 11:58:39;;;;;;;2.42;0.90;;;20.10;99.90;;;;;;4957426;29;20047;-92
2023/08/10 12:01:07;;;;;;;2.40;1.00;;;20.20;99.90;;;;;;4943136;29;20035;-94
2023/08/10 12:03:34;;;;;;;3.72;1.10;;;20.20;99.90;;;;;;4957970;29;20050;-93
2023/08/10 12:06:07;;;;;;;5.95;1.52;;;20.10;99.90;;;;;;4941861;29;20696;-93
2023/08/10 12:08:38;;;;;;;4.45;1.20;;;20.10;99.90;;;;;;4958101;29;20050;-93
2023/08/10 12:11:07;;;;;;;2.42;1.00;;;20.20;99.90;;;;;;4925931;29;20475;-94
2023/08/10 12:13:44;;;;;;;3.88;1.00;;;20.20;99.90;;;;;;4957290;29;20043;-94
2023/08/10 12:16:12;;;;;;;4.32;1.02;;;20.30;99.90;;;;;;4957711;29;20047;-94
2023/08/10 12:18:39;;;;;;;3.47;1.17;;;20.30;99.90;;;;;;4936928;29;20036;-94
2023/08/10 12:21:06;;;;;;;4.18;1.05;;;20.30;99.90;;;;;;4939916;29;20047;-93
2023/08/10 12:23:32;;;;;;;2.28;0.77;;;20.30;99.90;;;;;;4949648;29;20036;-94
2023/08/10 12:25:59;;;;;;;5.53;1.00;;;20.20;99.90;;;;;;4957177;29;20045;-94
2023/08/10 12:28:26;;;;;;;2.47;1.00;;;20.20;99.90;;;;;;4941143;29;20039;-93
2023/08/10 12:30:55;;;;;;;3.80;0.90;;;20.00;99.90;;;;;;4941981;29;20054;-94
2023/08/10 12:33:25;;;;;;;3.83;1.00;;;19.90;99.90;;;;;;4957754;29;20130;-92
2023/08/10 12:35:52;;;;;;;4.40;0.95;;;19.90;99.90;;;;;;4957079;29;20043;-93
2023/08/10 12:38:20;;;;;;;2.83;1.00;;;20.10;99.90;;;;;;4957172;29;20050;-93
2023/08/10 12:40:47;;;;;;;3.75;0.93;;;19.90;99.90;;;;;;4941073;29;20035;-93
2023/08/10 12:43:13;;;;;;;4.75;1.00;;;19.90;99.90;;;;;;4941230;29;20400;-93
2023/08/10 12:45:40;;;;;;;4.20;1.10;;;19.90;99.90;;;;;;4956822;29;20035;-93
2023/08/10 12:48:07;;;;;;;2.67;1.13;;;20.00;99.90;;;;;;4956798;29;20481;-93
2023/08/10 12:50:34;;;;;;;3.25;1.10;;;20.00;99.90;;;;;;4941391;29;20488;-93
2023/08/10 12:53:03;;;;;;;4.07;1.02;;;20.00;99.90;;;;;;4956998;29;20045;-93
2023/08/10 12:55:29;;;;;;;4.93;1.20;;;20.10;99.90;;;;;;4941371;29;20114;-92